Historyczne dane pomiarowe

Dodano dane terminowe – wersja testowa.

Dane z okresu 1951-2019

Wersja bazy: 1.34 [2019-03-16, lista zmian], aktualizacja planowana na 2019-04-15

Dane meteo z obszaru Polski uzyskane na podstawie danych udostępnionych przez Instytut Meteorologii i Gospodarki Wodnej – Państwowy Instytut Badawczy.

 

Wybierz Datę:    

       

TemperaturaWilgotnośćWiatrCiśnienieOpadyŚniegCzas trwania zjawisk
 Stacja t tx tn tng RH VA  wxwx mslp ppp RRR   cm mm wxwxwxwxwxwxwx
1999-08-14 15.7 22.8 6.8 3.6 56.5- 1.7 2.0---- 0.2------------
1999-08-13 15.2 19.7 11.5 10.1 72.3- 4.3 2.7---- 0.0------------
1999-08-12 15.1 20.6 10.3 8.3 71.3- 5.3 2.3---- 0.0------------
1999-08-11 17.8 21.6 14.9 14.0 83.5- 5.3 2.3---- 0.0------------
1999-08-10 19.3 24.6 16.0 14.1 85.5- 4.7 2.3---- 0.2------------
1999-08-09 20.5 25.2 15.8 15.4 86.0- 5.0 1.7---- 2.8------------
1999-08-08 22.9 30.1 16.0 12.6 65.3- 3.0 1.0---- 0.0------------
1999-08-07 21.0 28.8 13.2 10.9 77.0- 4.7 0.0---- 0.0------------
1999-08-06 20.9 27.4 11.8 9.7 68.8- 4.7 2.0---- 0.0------------
1999-08-05 19.7 28.5 10.3 7.5 56.0- 2.7 1.3---- 0.0------------
1999-08-04 19.6 28.0 10.3 7.6 50.3- 0.3 0.3---- 0.0------------
1999-08-03 19.3 27.2 9.3 6.8 43.8- 0.3 1.0---- 0.0------------
1999-08-02 20.3 26.5 14.0 11.1 48.0- 2.0 2.3---- 0.0------------
1999-08-01 20.6 27.2 14.9 12.8 51.3- 2.0 1.7---- 0.0------------
1999-07-31 20.9 27.1 14.4 11.7 48.0- 1.7 2.0---- 0.0------------
1999-07-30 18.7 25.7 8.8 5.4 50.8- 0.7 2.7---- 0.0------------
1999-07-29 19.1 25.1 12.9 11.1 55.5- 1.3 1.7---- 0.0------------
1999-07-28 17.9 24.6 9.0 6.5 58.5- 0.3 1.7---- 0.0------------
1999-07-27 17.8 22.5 12.8 11.7 53.8- 1.7 1.3---- 0.0------------
1999-07-26 20.1 27.7 13.4 11.4 73.5- 1.7 2.3---- 0.0------------
1999-07-25 19.7 25.7 12.9 9.6 65.5- 3.7 1.3---- 0.0------------
1999-07-24 16.3 20.0 13.0 12.6 68.8- 4.7 1.7---- 0.0------------
1999-07-23 15.4 19.2 11.3 9.0 76.3- 4.3 2.7---- 0.0------------
1999-07-22 18.2 23.6 14.3 10.6 54.8- 3.0 1.0---- 0.0------------
1999-07-21 20.3 27.0 10.8 8.3 71.0- 1.7 2.7---- 0.0------------
1999-07-20 22.2 31.6 14.4 11.7 65.0- 2.7 2.7---- 0.8------------
1999-07-19 22.5 30.1 13.4 10.1 57.3- 2.3 1.7---- 0.0------------
1999-07-18 20.4 28.1 12.2 9.6 62.5- 2.3 1.3---- 0.0------------
1999-07-17 18.3 24.7 9.6 7.7 64.0- 2.0 2.0---- 0.0------------
1999-07-16 16.0 21.6 9.8 7.8 74.3- 4.7 1.3---- 0.0------------
1999-07-15 15.5 19.7 11.8 10.0 80.8- 5.3 1.3---- 0.0------------
1999-07-14 19.9 24.6 17.0 15.2 88.5- 7.0 1.0---- 26.9------------
1999-07-13 22.3 28.1 17.4 14.7 81.8- 4.3 2.0---- 11.1------------
1999-07-12 22.7 29.1 17.5 15.0 67.3- 3.0 3.7---- 0.1------------
1999-07-11 19.8 24.6 14.6 13.1 68.5- 4.0 2.7---- 0.0------------
1999-07-10 20.5 25.7 14.9 13.7 65.5- 3.7 4.7---- 0.0------------
1999-07-09 18.5 23.1 13.9 13.9 83.5- 6.0 3.0---- 0.0------------
1999-07-08 16.0 17.9 14.5 13.5 86.3- 7.0 2.7---- 1.8------------
1999-07-07 16.4 22.6 10.3 9.1 90.3- 6.7 3.7---- 0.1------------
1999-07-06 22.7 28.2 17.6 15.0 75.8- 6.3 5.3---- 21.9------------
1999-07-05 25.7 32.4 18.5 16.9 54.5- 3.0 5.3---- 0.0------------
1999-07-04 22.5 31.2 15.9 13.5 68.8- 2.0 1.7---- 9.4------------
1999-07-03 20.0 27.2 12.8 11.0 71.0- 3.3 1.0---- 0.0------------
1999-07-02 19.0 23.6 14.4 13.1 81.8- 4.7 1.3---- 0.0------------
1999-07-01 19.5 23.6 15.5 14.6 80.8- 4.7 1.3---- 0.0------------
1999-06-30 18.7 26.6 8.8 7.2 66.8- 2.7 1.0---- 5.9------------
1999-06-29 18.2 23.6 11.4 8.5 60.5- 2.3 1.0---- 0.0------------
1999-06-28 19.4 25.7 14.3 12.1 74.8- 4.0 2.7---- 0.3------------
1999-06-27 18.2 22.6 10.9 9.5 77.3- 4.0 3.3---- 0.3------------
1999-06-26 13.5 18.2 5.8 4.0 75.3- 4.3 3.3---- 0.2------------
1999-06-25 12.8 17.7 6.3 4.7 74.0- 5.0 1.7---- 1.5------------
1999-06-24 13.0 18.2 9.3 9.1 72.3- 4.7 0.7---- 0.2------------
1999-06-23 12.5 17.2 8.4 8.2 69.8- 5.3 2.0---- 0.0------------
1999-06-22 10.9 13.5 9.3 9.1 91.3- 7.3 2.3---- 10.0------------
1999-06-21 15.1 20.6 11.5 10.0 88.5- 5.7 3.3---- 1.1------------
1999-06-20 17.1 22.6 10.8 9.9 76.5- 4.3 1.0---- 0.1------------
1999-06-19 15.4 19.2 11.9 11.1 94.0- 6.3 1.7---- 0.0------------
1999-06-18 15.5 20.6 12.9 10.3 92.5- 7.3 3.7---- 22.0------------
1999-06-17 17.7 21.1 12.4 10.6 83.0- 4.3 0.3---- 0.0------------
1999-06-16 17.4 21.8 14.0 13.6 77.8- 5.3 2.3---- 0.0------------
337.9 ms

 

Źródłem pochodzenia danych jest Instytut Meteorologii i Gospodarki Wodnej – Państwowy Instytut Badawczy. Dane Instytutu Meteorologii i Gospodarki Wodnej – Państwowego Instytutu Badawczego zostały przetworzone.

Dane źródłowe można odnaleźć na stronie https://dane.imgw.pl